Time;durP1;ratioP1;P1;durP2;ratioP2;P2;SDS_P1;SDS_P2;PMS_P1;PMS_P2;Temp;Humidity;BMP_temperature;BMP_pressure;BME280_temperature;BME280_humidity;BME280_pressure;Samples;Min_cycle;Max_cycle;Signal;HPM_P1;HPM_P2
2022/11/24 00:00:23;;;;;;;9.73;3.63;;;;;;;;;;5062602;27;87000;-63
2022/11/24 00:02:51;;;;;;;9.33;3.53;;;;;;;;;;5063251;27;87246;-63
2022/11/24 00:05:19;;;;;;;5.03;3.23;;;;;;;;;;5062524;27;88948;-63
2022/11/24 00:07:48;;;;;;;7.17;3.77;;;;;;;;;;5063111;27;87007;-63
2022/11/24 00:10:18;;;;;;;5.47;3.03;;;;;;;;;;5063042;27;86241;-63
2022/11/24 00:12:46;;;;;;;4.03;2.37;;;;;;;;;;5062062;27;89111;-63
2022/11/24 00:15:14;;;;;;;3.73;2.57;;;;;;;;;;5061974;27;88650;-63
2022/11/24 00:17:43;;;;;;;3.20;2.20;;;;;;;;;;5060875;27;88144;-63
2022/11/24 00:20:11;;;;;;;4.13;3.07;;;;;;;;;;5061518;27;87325;-63
2022/11/24 00:22:39;;;;;;;4.63;2.70;;;;;;;;;;5062187;27;89199;-64
2022/11/24 00:25:08;;;;;;;4.47;2.67;;;;;;;;;;5061748;27;88832;-63
2022/11/24 00:27:37;;;;;;;3.20;2.50;;;;;;;;;;5060847;27;86938;-63
2022/11/24 00:30:08;;;;;;;3.53;2.20;;;;;;;;;;5062257;27;87069;-63
2022/11/24 00:32:36;;;;;;;5.50;2.13;;;;;;;;;;5057730;27;91946;-62
2022/11/24 00:35:06;;;;;;;5.07;2.63;;;;;;;;;;5070322;27;89255;-62
2022/11/24 00:37:34;;;;;;;3.40;2.27;;;;;;;;;;5063529;27;87653;-62
2022/11/24 00:40:03;;;;;;;3.60;1.97;;;;;;;;;;5081401;27;87632;-62
2022/11/24 00:42:31;;;;;;;6.00;2.80;;;;;;;;;;5080894;27;89966;-61
2022/11/24 00:45:01;;;;;;;3.10;2.30;;;;;;;;;;5081390;27;88845;-62
2022/11/24 00:47:40;;;;;;;2.63;1.83;;;;;;;;;;5081985;27;87076;-62
2022/11/24 00:50:09;;;;;;;3.00;1.97;;;;;;;;;;5076544;27;87026;-61
2022/11/24 00:52:37;;;;;;;5.63;2.67;;;;;;;;;;5061295;27;89113;-62
2022/11/24 00:55:06;;;;;;;4.50;2.53;;;;;;;;;;5060562;27;88677;-62
2022/11/24 00:57:35;;;;;;;5.33;2.33;;;;;;;;;;5061606;27;87016;-62
2022/11/24 01:00:05;;;;;;;5.53;2.30;;;;;;;;;;5062012;27;86306;-62
2022/11/24 01:02:33;;;;;;;3.63;2.80;;;;;;;;;;5061244;27;89148;-62
2022/11/24 01:05:02;;;;;;;4.17;3.07;;;;;;;;;;5060858;27;87362;-62
2022/11/24 01:07:31;;;;;;;5.63;2.97;;;;;;;;;;5061033;27;88056;-62
2022/11/24 01:09:59;;;;;;;4.90;2.90;;;;;;;;;;5061731;27;86946;-62
2022/11/24 01:12:27;;;;;;;6.27;3.37;;;;;;;;;;5060807;27;89230;-62
2022/11/24 01:14:56;;;;;;;5.47;2.83;;;;;;;;;;5060391;27;88828;-62
2022/11/24 01:17:25;;;;;;;7.23;3.33;;;;;;;;;;5061003;27;87092;-61
2022/11/24 01:19:54;;;;;;;6.00;3.13;;;;;;;;;;5061260;27;87023;-62
2022/11/24 01:22:23;;;;;;;4.77;2.67;;;;;;;;;;5059721;27;89052;-62
2022/11/24 01:24:52;;;;;;;4.50;2.57;;;;;;;;;;5041031;28;88673;-62
2022/11/24 01:27:20;;;;;;;6.30;3.00;;;;;;;;;;5050070;27;87066;-62
2022/11/24 01:29:48;;;;;;;3.67;2.87;;;;;;;;;;5060807;27;87161;-62
2022/11/24 01:32:17;;;;;;;5.20;3.60;;;;;;;;;;5060276;27;89708;-62
2022/11/24 01:34:46;;;;;;;4.07;2.73;;;;;;;;;;5060919;27;91265;-62
2022/11/24 01:37:14;;;;;;;4.53;3.00;;;;;;;;;;5061138;27;87069;-62
2022/11/24 01:39:43;;;;;;;3.20;2.50;;;;;;;;;;5061393;27;87021;-62
2022/11/24 01:42:11;;;;;;;5.03;2.83;;;;;;;;;;5061318;27;89000;-62
2022/11/24 01:44:42;;;;;;;4.47;2.83;;;;;;;;;;5060402;27;88698;-62
2022/11/24 01:47:18;;;;;;;6.00;3.03;;;;;;;;;;5061495;27;87013;-64
2022/11/24 01:49:48;;;;;;;2.93;2.50;;;;;;;;;;5061033;27;86287;-62
2022/11/24 01:52:18;;;;;;;6.83;3.50;;;;;;;;;;5066570;27;88949;-62
2022/11/24 01:54:47;;;;;;;6.17;3.00;;;;;;;;;;5084710;27;88953;-62
2022/11/24 01:57:16;;;;;;;4.47;2.60;;;;;;;;;;5084151;27;88035;-62
2022/11/24 01:59:45;;;;;;;4.43;3.17;;;;;;;;;;5067020;27;87009;-62
2022/11/24 02:02:13;;;;;;;5.40;3.63;;;;;;;;;;5085002;27;88749;-62
2022/11/24 02:04:41;;;;;;;5.97;2.97;;;;;;;;;;5070839;27;89281;-62
2022/11/24 02:07:11;;;;;;;6.10;3.20;;;;;;;;;;5063986;27;87027;-62
2022/11/24 02:09:41;;;;;;;7.00;3.73;;;;;;;;;;5063788;27;87060;-61
2022/11/24 02:12:09;;;;;;;4.50;2.67;;;;;;;;;;5064095;27;89209;-62
2022/11/24 02:14:38;;;;;;;5.93;3.20;;;;;;;;;;5074883;27;88848;-62
2022/11/24 02:17:07;;;;;;;4.03;2.87;;;;;;;;;;5062843;27;86961;-62
2022/11/24 02:19:38;;;;;;;7.90;2.77;;;;;;;;;;5043984;28;87029;-62
2022/11/24 02:22:06;;;;;;;4.97;2.50;;;;;;;;;;5062869;27;93115;-63
2022/11/24 02:24:38;;;;;;;2.93;2.60;;;;;;;;;;5063750;27;89684;-62
2022/11/24 02:27:07;;;;;;;4.40;2.60;;;;;;;;;;5064164;27;86959;-62
2022/11/24 02:29:36;;;;;;;3.73;2.37;;;;;;;;;;5063635;27;86977;-62
2022/11/24 02:32:04;;;;;;;2.87;2.40;;;;;;;;;;5055307;27;89153;-62
2022/11/24 02:34:33;;;;;;;4.13;2.43;;;;;;;;;;5043362;28;88729;-62
2022/11/24 02:37:01;;;;;;;3.17;1.97;;;;;;;;;;5043941;28;87155;-61
2022/11/24 02:39:30;;;;;;;3.53;2.53;;;;;;;;;;5043597;28;86283;-62
2022/11/24 02:41:59;;;;;;;4.00;3.13;;;;;;;;;;5043302;28;89056;-62
2022/11/24 02:44:29;;;;;;;2.53;1.97;;;;;;;;;;5043315;28;88693;-62
2022/11/24 02:47:04;;;;;;;4.20;2.47;;;;;;;;;;5043374;28;88093;-61
2022/11/24 02:49:33;;;;;;;2.20;1.90;;;;;;;;;;5043862;28;87511;-62
2022/11/24 02:52:01;;;;;;;2.33;2.10;;;;;;;;;;5043758;28;89468;-62
2022/11/24 02:54:29;;;;;;;3.83;1.70;;;;;;;;;;5043432;27;88812;-62
2022/11/24 02:56:58;;;;;;;5.80;2.03;;;;;;;;;;5046215;27;88006;-61
2022/11/24 02:59:26;;;;;;;2.77;2.10;;;;;;;;;;5060331;27;87099;-62
2022/11/24 03:01:56;;;;;;;3.43;2.20;;;;;;;;;;5055241;27;89034;-62
2022/11/24 03:04:24;;;;;;;3.60;1.73;;;;;;;;;;5061653;27;90989;-61
2022/11/24 03:06:52;;;;;;;2.13;1.63;;;;;;;;;;5063505;27;87069;-61
2022/11/24 03:09:20;;;;;;;3.43;2.00;;;;;;;;;;5062898;27;86996;-62
2022/11/24 03:11:49;;;;;;;2.73;1.60;;;;;;;;;;5050960;27;89010;-61
2022/11/24 03:14:17;;;;;;;3.20;1.93;;;;;;;;;;5042445;27;89724;-62
2022/11/24 03:16:45;;;;;;;3.30;1.50;;;;;;;;;;5062198;27;87036;-61
2022/11/24 03:19:15;;;;;;;1.57;1.40;;;;;;;;;;5082246;27;87130;-62
2022/11/24 03:21:43;;;;;;;3.80;2.23;;;;;;;;;;5081500;27;88977;-61
2022/11/24 03:24:11;;;;;;;1.67;1.30;;;;;;;;;;5064718;27;88774;-61
2022/11/24 03:26:40;;;;;;;4.40;1.90;;;;;;;;;;5067214;27;87080;-61
2022/11/24 03:29:09;;;;;;;2.63;1.50;;;;;;;;;;5066025;27;86389;-62
2022/11/24 03:31:37;;;;;;;1.50;0.97;;;;;;;;;;5071933;27;89039;-61
2022/11/24 03:34:05;;;;;;;2.63;1.63;;;;;;;;;;5069230;27;88457;-61
2022/11/24 03:36:35;;;;;;;1.77;1.10;;;;;;;;;;5063295;27;87958;-61
2022/11/24 03:39:03;;;;;;;2.53;1.13;;;;;;;;;;5066204;27;87368;-61
2022/11/24 03:41:32;;;;;;;1.33;0.90;;;;;;;;;;5083093;27;89088;-61
2022/11/24 03:44:00;;;;;;;1.77;1.23;;;;;;;;;;5082996;27;89022;-62
2022/11/24 03:46:28;;;;;;;1.67;1.47;;;;;;;;;;5072914;27;87113;-62
2022/11/24 03:48:57;;;;;;;2.27;1.50;;;;;;;;;;5062489;27;87017;-62
2022/11/24 03:51:25;;;;;;;2.03;1.27;;;;;;;;;;5069675;27;89069;-62
2022/11/24 03:53:55;;;;;;;3.53;1.30;;;;;;;;;;5075513;27;88612;-61
2022/11/24 03:56:23;;;;;;;1.80;1.07;;;;;;;;;;5062129;27;87057;-61
2022/11/24 03:58:51;;;;;;;2.57;1.17;;;;;;;;;;5078692;27;87035;-61
2022/11/24 04:01:19;;;;;;;3.83;1.43;;;;;;;;;;5069482;27;90219;-62
2022/11/24 04:03:48;;;;;;;1.70;1.30;;;;;;;;;;5073648;27;91421;-62
2022/11/24 04:06:16;;;;;;;1.67;1.30;;;;;;;;;;5082783;27;88038;-62
2022/11/24 04:08:44;;;;;;;1.30;0.90;;;;;;;;;;5080226;27;87587;-62
2022/11/24 04:13:56;;;;;;;1.53;0.87;;;;;;;;;;5060777;27;88790;-62
2022/11/24 04:16:25;;;;;;;2.03;1.13;;;;;;;;;;5074711;27;87033;-62
2022/11/24 04:18:53;;;;;;;1.87;1.27;;;;;;;;;;5082752;27;86221;-62
2022/11/24 04:21:21;;;;;;;1.30;1.00;;;;;;;;;;5080714;27;89234;-62
2022/11/24 04:23:50;;;;;;;1.67;0.90;;;;;;;;;;5078427;27;91499;-62
2022/11/24 04:26:19;;;;;;;1.97;1.00;;;;;;;;;;5061378;27;87942;-62
2022/11/24 04:28:48;;;;;;;1.20;1.10;;;;;;;;;;5061879;27;87043;-62
2022/11/24 04:31:17;;;;;;;2.23;1.00;;;;;;;;;;5063230;27;88552;-62
2022/11/24 04:33:45;;;;;;;1.93;1.30;;;;;;;;;;5067972;27;88865;-61
2022/11/24 04:36:13;;;;;;;2.37;1.30;;;;;;;;;;5063001;27;87025;-61
2022/11/24 04:38:42;;;;;;;0.70;0.70;;;;;;;;;;5060305;27;87038;-61
2022/11/24 04:41:31;;;;;;;1.13;0.90;;;;;;;;;;5061268;27;90599;-61
2022/11/24 04:44:00;;;;;;;1.13;0.80;;;;;;;;;;5062244;27;90653;-61
2022/11/24 04:46:28;;;;;;;0.80;0.80;;;;;;;;;;5066468;27;87288;-60
2022/11/24 04:48:56;;;;;;;2.63;0.97;;;;;;;;;;5077328;27;87080;-61
2022/11/24 04:51:25;;;;;;;1.40;0.93;;;;;;;;;;5066453;27;89955;-62
2022/11/24 04:53:53;;;;;;;2.03;1.10;;;;;;;;;;5062375;27;88693;-62
2022/11/24 04:56:21;;;;;;;3.77;1.10;;;;;;;;;;5074611;27;87259;-61
2022/11/24 04:58:51;;;;;;;1.00;0.93;;;;;;;;;;5071142;27;87069;-61
2022/11/24 05:01:19;;;;;;;2.27;1.10;;;;;;;;;;5068769;27;89144;-61
2022/11/24 05:03:48;;;;;;;0.60;0.60;;;;;;;;;;5066511;27;87721;-61
2022/11/24 05:06:16;;;;;;;1.50;0.80;;;;;;;;;;5064379;27;87409;-62
2022/11/24 05:08:44;;;;;;;1.00;0.77;;;;;;;;;;5065165;27;86210;-62
2022/11/24 05:11:13;;;;;;;1.40;1.17;;;;;;;;;;5063013;27;89172;-61
2022/11/24 05:13:41;;;;;;;0.70;0.70;;;;;;;;;;5061702;27;88990;-61
2022/11/24 05:16:11;;;;;;;2.20;0.80;;;;;;;;;;5062571;27;87992;-62
2022/11/24 05:18:39;;;;;;;0.70;0.70;;;;;;;;;;5056693;27;87193;-62
2022/11/24 05:21:07;;;;;;;1.90;0.70;;;;;;;;;;5044369;27;89143;-62
2022/11/24 05:23:36;;;;;;;0.73;0.43;;;;;;;;;;5043805;27;87761;-62
2022/11/24 05:26:04;;;;;;;1.37;0.70;;;;;;;;;;5044958;27;87044;-61
2022/11/24 05:28:33;;;;;;;0.87;0.60;;;;;;;;;;5046574;28;87058;-61
2022/11/24 05:31:01;;;;;;;0.63;0.50;;;;;;;;;;5047547;27;89110;-62
2022/11/24 05:33:32;;;;;;;1.00;0.60;;;;;;;;;;5031536;27;88879;-62
2022/11/24 05:36:01;;;;;;;1.30;1.00;;;;;;;;;;5047954;27;87068;-62
2022/11/24 05:38:29;;;;;;;0.60;0.60;;;;;;;;;;5048230;27;86973;-62
2022/11/24 05:41:00;;;;;;;0.60;0.57;;;;;;;;;;5047848;27;88758;-62
2022/11/24 05:43:28;;;;;;;1.40;0.50;;;;;;;;;;5046850;27;89801;-62
2022/11/24 05:45:59;;;;;;;0.67;0.60;;;;;;;;;;5064025;27;87783;-62
2022/11/24 05:48:27;;;;;;;0.83;0.53;;;;;;;;;;5053672;27;87768;-62
2022/11/24 05:50:57;;;;;;;0.57;0.57;;;;;;;;;;5065641;27;88885;-62
2022/11/24 05:53:25;;;;;;;0.43;0.30;;;;;;;;;;5059501;27;88848;-61
2022/11/24 05:55:54;;;;;;;0.50;0.40;;;;;;;;;;5048901;27;87159;-62
2022/11/24 05:58:22;;;;;;;1.17;0.60;;;;;;;;;;5063321;27;87705;-62
2022/11/24 06:00:50;;;;;;;0.60;0.60;;;;;;;;;;5058289;27;87867;-62
2022/11/24 06:03:19;;;;;;;0.97;0.53;;;;;;;;;;5047033;27;88847;-61
2022/11/24 06:05:47;;;;;;;0.73;0.50;;;;;;;;;;5047528;27;87963;-62
2022/11/24 06:08:17;;;;;;;0.63;0.43;;;;;;;;;;5046280;27;87001;-61
2022/11/24 06:10:45;;;;;;;0.80;0.53;;;;;;;;;;5045316;27;89216;-62
2022/11/24 06:13:14;;;;;;;1.50;0.57;;;;;;;;;;5037070;28;88892;-62
2022/11/24 06:15:42;;;;;;;0.80;0.50;;;;;;;;;;5057884;27;86984;-62
2022/11/24 06:18:10;;;;;;;0.60;0.60;;;;;;;;;;5051947;27;87790;-62
2022/11/24 06:20:39;;;;;;;1.03;0.63;;;;;;;;;;5048531;27;88153;-61
2022/11/24 06:23:07;;;;;;;0.40;0.40;;;;;;;;;;5027467;28;87000;-62
2022/11/24 06:25:37;;;;;;;0.40;0.40;;;;;;;;;;5038795;27;86990;-62
2022/11/24 06:28:05;;;;;;;0.70;0.57;;;;;;;;;;5047658;27;86884;-63
2022/11/24 06:30:34;;;;;;;2.13;0.67;;;;;;;;;;5051686;27;88930;-62
2022/11/24 06:33:03;;;;;;;0.30;0.30;;;;;;;;;;5066240;27;88347;-62
2022/11/24 06:35:31;;;;;;;0.77;0.43;;;;;;;;;;5054632;27;87024;-62
2022/11/24 06:37:59;;;;;;;0.40;0.40;;;;;;;;;;5058729;27;86982;-62
2022/11/24 06:40:28;;;;;;;1.07;0.50;;;;;;;;;;5065666;27;88908;-62
2022/11/24 06:42:58;;;;;;;0.33;0.33;;;;;;;;;;5065245;27;88788;-62
2022/11/24 06:45:26;;;;;;;0.50;0.40;;;;;;;;;;5056574;27;87063;-62
2022/11/24 06:47:54;;;;;;;0.50;0.50;;;;;;;;;;5045675;28;86369;-62
2022/11/24 06:50:23;;;;;;;0.87;0.70;;;;;;;;;;5058864;27;89270;-62
2022/11/24 06:52:57;;;;;;;1.33;0.90;;;;;;;;;;5064507;27;88840;-62
2022/11/24 06:55:26;;;;;;;0.77;0.50;;;;;;;;;;5055669;27;87999;-62
2022/11/24 06:57:54;;;;;;;1.27;0.50;;;;;;;;;;5051124;27;87085;-62
2022/11/24 07:00:24;;;;;;;0.77;0.50;;;;;;;;;;5058742;27;88716;-61
2022/11/24 07:02:52;;;;;;;0.40;0.40;;;;;;;;;;5063580;27;88975;-62
2022/11/24 07:05:21;;;;;;;3.20;0.70;;;;;;;;;;5053862;27;87091;-61
2022/11/24 07:07:49;;;;;;;1.43;0.50;;;;;;;;;;5023136;27;87089;-62
2022/11/24 07:10:18;;;;;;;1.90;0.57;;;;;;;;;;5030053;27;88108;-62
2022/11/24 07:12:46;;;;;;;0.83;0.40;;;;;;;;;;5043018;28;88832;-62
2022/11/24 07:15:15;;;;;;;0.30;0.30;;;;;;;;;;5034546;27;87086;-62
2022/11/24 07:17:44;;;;;;;0.83;0.50;;;;;;;;;;5032309;27;88649;-62
2022/11/24 07:20:13;;;;;;;1.07;0.60;;;;;;;;;;5043954;27;90305;-62
2022/11/24 07:22:41;;;;;;;0.87;0.87;;;;;;;;;;5063482;27;92373;-62
2022/11/24 07:25:12;;;;;;;1.27;0.40;;;;;;;;;;5062834;27;86991;-60
2022/11/24 07:27:41;;;;;;;0.60;0.37;;;;;;;;;;5062834;27;87006;-62
2022/11/24 07:30:09;;;;;;;0.23;0.23;;;;;;;;;;5059213;27;89204;-61
2022/11/24 07:32:38;;;;;;;0.47;0.40;;;;;;;;;;5042517;28;87544;-62
2022/11/24 07:35:08;;;;;;;0.37;0.37;;;;;;;;;;5047936;27;87032;-62
2022/11/24 07:37:36;;;;;;;0.40;0.40;;;;;;;;;;5058635;27;86304;-62
2022/11/24 07:40:05;;;;;;;2.00;0.60;;;;;;;;;;5061784;27;87977;-62
2022/11/24 07:42:33;;;;;;;0.23;0.23;;;;;;;;;;5062512;27;87859;-62
2022/11/24 07:45:02;;;;;;;0.90;0.80;;;;;;;;;;5041811;27;87985;-62
2022/11/24 07:47:30;;;;;;;0.40;0.40;;;;;;;;;;5042767;28;87671;-62
2022/11/24 07:49:58;;;;;;;0.40;0.40;;;;;;;;;;5040415;28;89507;-62
2022/11/24 07:52:28;;;;;;;0.40;0.40;;;;;;;;;;5037640;28;88867;-62
2022/11/24 07:54:56;;;;;;;0.57;0.57;;;;;;;;;;5040916;28;87110;-62
2022/11/24 07:57:25;;;;;;;0.30;0.30;;;;;;;;;;5040767;28;87157;-62
2022/11/24 07:59:53;;;;;;;0.70;0.43;;;;;;;;;;5041629;28;89128;-62
2022/11/24 08:02:22;;;;;;;1.23;0.43;;;;;;;;;;5042026;28;87813;-62
2022/11/24 08:04:50;;;;;;;0.50;0.50;;;;;;;;;;5041530;28;86928;-62
2022/11/24 08:07:18;;;;;;;0.30;0.30;;;;;;;;;;5041114;28;87245;-62
2022/11/24 08:09:49;;;;;;;2.27;0.40;;;;;;;;;;5040939;28;90370;-62
2022/11/24 08:12:20;;;;;;;0.23;0.23;;;;;;;;;;5041502;28;89743;-62
2022/11/24 08:14:49;;;;;;;0.27;0.27;;;;;;;;;;5041756;28;87086;-62
2022/11/24 08:17:17;;;;;;;0.87;0.40;;;;;;;;;;5041398;28;87010;-62
2022/11/24 08:19:46;;;;;;;0.47;0.40;;;;;;;;;;5040579;27;88872;-62
2022/11/24 08:22:14;;;;;;;0.33;0.33;;;;;;;;;;5041459;28;91182;-62
2022/11/24 08:24:46;;;;;;;2.57;0.50;;;;;;;;;;5041613;28;87070;-62
2022/11/24 08:27:16;;;;;;;2.30;0.67;;;;;;;;;;5042049;28;86280;-62
2022/11/24 08:29:44;;;;;;;0.47;0.47;;;;;;;;;;5040727;28;89146;-62
2022/11/24 08:32:13;;;;;;;0.40;0.40;;;;;;;;;;5040853;28;89109;-62
2022/11/24 08:34:49;;;;;;;0.50;0.40;;;;;;;;;;5040240;28;88356;-62
2022/11/24 08:37:17;;;;;;;0.80;0.70;;;;;;;;;;5040629;28;87002;-62
2022/11/24 08:39:46;;;;;;;0.70;0.70;;;;;;;;;;5041147;28;87968;-62
2022/11/24 08:42:15;;;;;;;0.87;0.60;;;;;;;;;;5040705;28;88934;-62
2022/11/24 08:44:44;;;;;;;1.00;0.60;;;;;;;;;;5041089;28;87164;-62
2022/11/24 08:47:12;;;;;;;0.27;0.27;;;;;;;;;;5040966;28;87094;-62
2022/11/24 08:49:41;;;;;;;1.30;0.57;;;;;;;;;;5040270;28;88029;-62
2022/11/24 08:52:10;;;;;;;0.30;0.30;;;;;;;;;;5041132;28;88930;-62
2022/11/24 08:54:39;;;;;;;0.30;0.30;;;;;;;;;;5040663;28;87049;-62
2022/11/24 08:57:07;;;;;;;0.80;0.50;;;;;;;;;;5040366;28;87072;-62
2022/11/24 08:59:37;;;;;;;2.07;0.83;;;;;;;;;;5039264;28;89998;-62
2022/11/24 09:02:06;;;;;;;0.37;0.37;;;;;;;;;;5039798;27;89864;-62
2022/11/24 09:04:34;;;;;;;2.30;0.57;;;;;;;;;;5040473;28;87026;-62
2022/11/24 09:07:03;;;;;;;0.67;0.40;;;;;;;;;;5040727;28;87605;-62
2022/11/24 09:09:31;;;;;;;1.07;0.63;;;;;;;;;;5040550;28;89190;-62
2022/11/24 09:11:59;;;;;;;0.53;0.50;;;;;;;;;;5040749;28;89009;-62
2022/11/24 09:14:28;;;;;;;0.73;0.50;;;;;;;;;;5040506;28;87111;-62
2022/11/24 09:16:58;;;;;;;0.53;0.50;;;;;;;;;;5041090;28;86377;-61
2022/11/24 09:19:26;;;;;;;0.33;0.30;;;;;;;;;;5039108;27;89118;-61
2022/11/24 09:21:54;;;;;;;0.93;0.40;;;;;;;;;;5039881;28;89025;-62
2022/11/24 09:24:23;;;;;;;2.13;0.40;;;;;;;;;;5039937;28;87969;-61
2022/11/24 09:26:51;;;;;;;0.93;0.77;;;;;;;;;;5040160;28;87013;-62
2022/11/24 09:29:20;;;;;;;0.60;0.40;;;;;;;;;;5030333;28;88909;-62
2022/11/24 09:31:48;;;;;;;0.83;0.50;;;;;;;;;;5039477;28;88929;-62
2022/11/24 09:34:18;;;;;;;2.47;0.57;;;;;;;;;;5040417;28;87081;-62
2022/11/24 09:36:46;;;;;;;0.40;0.40;;;;;;;;;;5040166;28;87062;-62
2022/11/24 09:39:14;;;;;;;0.20;0.20;;;;;;;;;;5039758;28;89314;-62
2022/11/24 09:41:49;;;;;;;2.33;0.63;;;;;;;;;;5040428;28;88953;-62
2022/11/24 09:44:25;;;;;;;0.50;0.50;;;;;;;;;;5036047;28;87550;-62
2022/11/24 09:46:54;;;;;;;0.77;0.57;;;;;;;;;;5040595;28;87026;-62
2022/11/24 09:49:25;;;;;;;0.83;0.50;;;;;;;;;;5039019;28;90232;-62
2022/11/24 09:51:53;;;;;;;0.60;0.50;;;;;;;;;;5040304;28;89109;-62
2022/11/24 09:54:22;;;;;;;0.40;0.40;;;;;;;;;;5040218;28;86922;-61
2022/11/24 09:56:51;;;;;;;0.47;0.47;;;;;;;;;;5034292;28;87080;-61
2022/11/24 09:59:19;;;;;;;0.67;0.50;;;;;;;;;;5040185;28;89308;-62
2022/11/24 10:01:48;;;;;;;0.40;0.30;;;;;;;;;;5039304;28;90600;-61
2022/11/24 10:04:17;;;;;;;1.60;0.63;;;;;;;;;;5040379;28;87070;-61
2022/11/24 10:06:48;;;;;;;1.10;0.40;;;;;;;;;;5039892;28;86326;-62
2022/11/24 10:09:21;;;;;;;1.10;0.50;;;;;;;;;;5040861;28;90123;-64
2022/11/24 10:11:52;;;;;;;3.83;1.30;;;;;;;;;;5040431;28;88982;-63
2022/11/24 10:14:32;;;;;;;3.20;0.60;;;;;;;;;;5041987;27;87884;-63
2022/11/24 10:17:02;;;;;;;0.63;0.60;;;;;;;;;;5042993;28;87307;-63
2022/11/24 10:19:34;;;;;;;0.50;0.50;;;;;;;;;;5042315;27;89050;-63
2022/11/24 10:22:09;;;;;;;1.53;0.53;;;;;;;;;;5043037;28;88878;-63
2022/11/24 10:24:57;;;;;;;0.50;0.50;;;;;;;;;;5043461;28;87438;-63
2022/11/24 10:27:27;;;;;;;1.13;0.40;;;;;;;;;;5043548;28;87179;-63
2022/11/24 10:29:55;;;;;;;0.30;0.30;;;;;;;;;;5044181;28;89365;-63
2022/11/24 10:32:24;;;;;;;0.73;0.30;;;;;;;;;;5044782;28;88750;-65
2022/11/24 10:34:53;;;;;;;0.43;0.40;;;;;;;;;;5043557;27;87001;-66
2022/11/24 10:37:23;;;;;;;6.57;0.70;;;;;;;;;;5028600;28;87091;-66
2022/11/24 10:39:54;;;;;;;0.53;0.30;;;;;;;;;;5023026;28;89269;-65
2022/11/24 10:42:27;;;;;;;1.60;0.57;;;;;;;;;;5023190;28;88695;-68
2022/11/24 10:45:02;;;;;;;0.37;0.30;;;;;;;;;;5023684;28;86977;-69
2022/11/24 10:47:30;;;;;;;0.90;0.87;;;;;;;;;;5023781;28;87078;-68
2022/11/24 10:50:01;;;;;;;3.43;1.87;;;;;;;;;;5023765;28;87817;-69
2022/11/24 10:52:31;;;;;;;5.30;3.93;;;;;;;;;;5023641;28;88856;-70
2022/11/24 10:55:00;;;;;;;7.23;4.53;;;;;;;;;;5023984;28;87066;-69
2022/11/24 10:57:30;;;;;;;9.30;5.50;;;;;;;;;;5024477;28;86212;-69
2022/11/24 10:59:58;;;;;;;7.07;5.33;;;;;;;;;;5023874;28;89201;-69
2022/11/24 11:02:31;;;;;;;7.20;5.43;;;;;;;;;;5023804;28;87717;-68
2022/11/24 11:05:00;;;;;;;6.67;4.73;;;;;;;;;;5023702;28;88732;-68
2022/11/24 11:07:29;;;;;;;7.80;5.33;;;;;;;;;;5023112;28;86881;-69
2022/11/24 11:10:16;;;;;;;6.13;5.03;;;;;;;;;;5023650;28;89052;-69
2022/11/24 11:12:46;;;;;;;7.00;4.63;;;;;;;;;;5023124;28;87772;-69
2022/11/24 11:15:27;;;;;;;4.80;4.27;;;;;;;;;;5023791;28;88237;-69
2022/11/24 11:17:57;;;;;;;9.73;5.00;;;;;;;;;;5043104;28;87008;-69
2022/11/24 11:20:28;;;;;;;6.73;4.37;;;;;;;;;;5043167;27;87709;-69
2022/11/24 11:22:56;;;;;;;7.13;4.60;;;;;;;;;;5043642;28;88860;-69
2022/11/24 11:25:25;;;;;;;4.97;4.23;;;;;;;;;;5043377;28;87134;-70
2022/11/24 11:27:58;;;;;;;5.27;3.23;;;;;;;;;;5043163;28;87046;-69
2022/11/24 11:30:34;;;;;;;6.10;4.10;;;;;;;;;;5042787;28;90196;-69
2022/11/24 11:33:23;;;;;;;6.83;4.07;;;;;;;;;;5042982;28;89545;-70
2022/11/24 11:36:11;;;;;;;3.93;3.20;;;;;;;;;;5043426;28;87042;-69
2022/11/24 11:38:40;;;;;;;4.40;3.43;;;;;;;;;;5043516;28;86857;-70
2022/11/24 11:41:09;;;;;;;4.77;2.80;;;;;;;;;;5042985;28;89168;-70
2022/11/24 11:43:39;;;;;;;7.67;3.20;;;;;;;;;;5042630;28;91259;-70
2022/11/24 11:46:10;;;;;;;5.97;3.00;;;;;;;;;;5033623;28;87147;-70
2022/11/24 11:48:39;;;;;;;4.47;3.20;;;;;;;;;;5021960;28;87231;-69
2022/11/24 11:51:16;;;;;;;3.07;2.60;;;;;;;;;;5022070;28;88982;-69
2022/11/24 11:53:53;;;;;;;5.57;2.83;;;;;;;;;;5022552;28;87620;-69
2022/11/24 11:56:22;;;;;;;4.73;2.87;;;;;;;;;;5022386;28;87995;-70
2022/11/24 11:59:09;;;;;;;3.30;2.60;;;;;;;;;;5022819;28;86964;-69
2022/11/24 12:01:52;;;;;;;3.57;2.70;;;;;;;;;;5022490;28;87036;-69
2022/11/24 12:04:24;;;;;;;3.33;2.23;;;;;;;;;;5014046;28;88003;-69
2022/11/24 12:06:56;;;;;;;3.27;2.40;;;;;;;;;;5023142;28;87069;-70
2022/11/24 12:09:28;;;;;;;3.67;2.43;;;;;;;;;;5023306;28;87016;-70
2022/11/24 12:12:00;;;;;;;4.90;2.57;;;;;;;;;;5023569;28;88052;-68
2022/11/24 12:14:30;;;;;;;2.83;1.80;;;;;;;;;;5023715;28;88835;-69
2022/11/24 12:17:00;;;;;;;3.07;2.40;;;;;;;;;;5023639;28;86992;-69
2022/11/24 12:19:34;;;;;;;5.73;2.47;;;;;;;;;;5032995;28;87077;-69
2022/11/24 12:22:06;;;;;;;2.43;2.23;;;;;;;;;;5042860;28;90000;-70
2022/11/24 12:24:37;;;;;;;5.60;2.80;;;;;;;;;;5042420;28;89825;-69
2022/11/24 12:27:06;;;;;;;5.17;2.97;;;;;;;;;;5043232;28;87012;-71
2022/11/24 12:29:43;;;;;;;3.67;3.33;;;;;;;;;;5042926;28;86974;-69
2022/11/24 12:32:12;;;;;;;5.53;3.67;;;;;;;;;;5056998;27;89108;-68
2022/11/24 12:34:45;;;;;;;6.10;3.20;;;;;;;;;;5062777;27;88626;-67
2022/11/24 12:37:18;;;;;;;5.33;3.10;;;;;;;;;;5062615;27;87008;-66
2022/11/24 12:39:47;;;;;;;5.47;3.30;;;;;;;;;;5063505;27;86393;-67
2022/11/24 12:42:19;;;;;;;8.23;4.20;;;;;;;;;;5062782;27;88783;-68
2022/11/24 12:44:52;;;;;;;6.60;4.30;;;;;;;;;;5062089;27;90719;-69
2022/11/24 12:47:22;;;;;;;9.10;4.57;;;;;;;;;;5061684;27;88017;-69
2022/11/24 12:49:55;;;;;;;7.77;4.40;;;;;;;;;;5062456;27;87031;-71
2022/11/24 12:52:23;;;;;;;7.43;4.70;;;;;;;;;;5062893;27;88880;-71
2022/11/24 12:54:51;;;;;;;5.47;4.13;;;;;;;;;;5062584;27;88342;-73
2022/11/24 12:57:21;;;;;;;9.80;4.83;;;;;;;;;;5062575;27;87091;-71
2022/11/24 12:59:52;;;;;;;7.53;4.10;;;;;;;;;;5063076;27;87039;-72
2022/11/24 13:02:22;;;;;;;7.87;5.10;;;;;;;;;;5062602;27;89149;-71
2022/11/24 13:04:51;;;;;;;7.03;4.47;;;;;;;;;;5062969;27;87708;-71
2022/11/24 13:07:22;;;;;;;7.43;4.33;;;;;;;;;;5063259;27;86996;-71
2022/11/24 13:10:14;;;;;;;7.97;4.70;;;;;;;;;;5062573;27;87021;-71
2022/11/24 13:12:53;;;;;;;8.90;4.43;;;;;;;;;;5042075;27;89574;-71
2022/11/24 13:15:22;;;;;;;6.40;4.37;;;;;;;;;;5061975;27;89774;-72
2022/11/24 13:18:35;;;;;;;5.40;4.27;;;;;;;;;;5042270;28;87011;-70
2022/11/24 13:21:04;;;;;;;6.30;4.07;;;;;;;;;;5041927;28;86998;-67
2022/11/24 13:23:34;;;;;;;7.60;4.13;;;;;;;;;;5041983;28;88545;-66
2022/11/24 13:26:14;;;;;;;3.67;3.37;;;;;;;;;;5042040;28;88743;-67
2022/11/24 13:28:59;;;;;;;6.67;4.40;;;;;;;;;;5041911;28;86987;-66
2022/11/24 13:31:40;;;;;;;4.37;3.53;;;;;;;;;;5043179;28;86270;-65
2022/11/24 13:34:23;;;;;;;6.13;3.93;;;;;;;;;;5041847;28;88896;-64
2022/11/24 13:36:53;;;;;;;8.17;3.67;;;;;;;;;;5040808;28;89267;-65
2022/11/24 13:39:24;;;;;;;5.10;3.37;;;;;;;;;;5041165;28;87965;-65
2022/11/24 13:42:01;;;;;;;50.70;17.67;;;;;;;;;;5040229;28;89755;-65
2022/11/24 13:44:39;;;;;;;134.00;39.07;;;;;;;;;;5040567;28;91351;-67
2022/11/24 13:47:28;;;;;;;120.43;37.30;;;;;;;;;;5051256;27;87131;-66
2022/11/24 13:49:56;;;;;;;98.20;33.60;;;;;;;;;;5063687;27;87033;-67
2022/11/24 13:52:38;;;;;;;76.13;27.53;;;;;;;;;;5064340;27;87022;-66
2022/11/24 13:55:20;;;;;;;70.53;27.00;;;;;;;;;;5063957;27;89080;-67
2022/11/24 13:57:49;;;;;;;57.80;22.57;;;;;;;;;;5064347;27;90235;-67
2022/11/24 14:00:19;;;;;;;68.40;23.37;;;;;;;;;;5068469;27;87039;-65
2022/11/24 14:02:47;;;;;;;67.77;27.97;;;;;;;;;;5084741;27;87051;-65
2022/11/24 14:05:16;;;;;;;93.43;41.30;;;;;;;;;;5075745;27;90086;-65
2022/11/24 14:07:44;;;;;;;100.23;55.10;;;;;;;;;;5063871;27;89898;-66
2022/11/24 14:10:14;;;;;;;111.30;55.03;;;;;;;;;;5064392;27;87040;-65
2022/11/24 14:12:44;;;;;;;146.63;63.87;;;;;;;;;;5063799;27;87282;-64
2022/11/24 14:15:21;;;;;;;128.67;63.30;;;;;;;;;;5063938;27;91382;-65
2022/11/24 14:17:49;;;;;;;120.60;58.80;;;;;;;;;;5063644;27;87831;-65
2022/11/24 14:20:22;;;;;;;108.30;54.33;;;;;;;;;;5046417;27;87114;-65
2022/11/24 14:22:51;;;;;;;101.97;51.97;;;;;;;;;;5045361;28;86150;-65
2022/11/24 14:25:21;;;;;;;111.70;54.37;;;;;;;;;;5043685;28;88061;-64
2022/11/24 14:27:51;;;;;;;102.63;51.07;;;;;;;;;;5044523;28;88951;-65
2022/11/24 14:30:20;;;;;;;101.60;46.87;;;;;;;;;;5044065;28;88000;-65
2022/11/24 14:32:55;;;;;;;102.10;45.60;;;;;;;;;;5044839;28;87047;-65
2022/11/24 14:35:24;;;;;;;87.93;44.70;;;;;;;;;;5043921;28;89470;-65
2022/11/24 14:37:52;;;;;;;85.13;41.97;;;;;;;;;;5044410;28;89153;-65
2022/11/24 14:40:38;;;;;;;79.43;41.17;;;;;;;;;;5044416;28;87094;-65
2022/11/24 14:43:15;;;;;;;78.20;38.37;;;;;;;;;;5044441;28;87089;-64
2022/11/24 14:45:48;;;;;;;68.37;36.30;;;;;;;;;;5043685;28;88032;-65
2022/11/24 14:48:16;;;;;;;75.37;39.33;;;;;;;;;;5044468;28;86589;-65
2022/11/24 14:50:45;;;;;;;77.80;35.10;;;;;;;;;;5044367;28;86915;-65
2022/11/24 14:53:14;;;;;;;60.37;34.73;;;;;;;;;;5043848;28;87081;-65
2022/11/24 14:55:42;;;;;;;60.60;32.63;;;;;;;;;;5042596;28;89995;-65
2022/11/24 14:58:21;;;;;;;61.17;34.17;;;;;;;;;;5044529;28;92367;-65
2022/11/24 15:01:05;;;;;;;54.30;31.43;;;;;;;;;;5042883;27;87084;-65